sensor_id;sensor_type;location;lat;lon;timestamp;temperature;humidity
11089;DHT22;5598;48.648;8.908;2023-07-20T00:01:26;19.20;74.00
11089;DHT22;5598;48.648;8.908;2023-07-20T00:03:53;19.20;74.50
11089;DHT22;5598;48.648;8.908;2023-07-20T00:06:21;19.10;74.30
11089;DHT22;5598;48.648;8.908;2023-07-20T00:08:49;19.10;74.40
11089;DHT22;5598;48.648;8.908;2023-07-20T00:11:17;19.00;75.00
11089;DHT22;5598;48.648;8.908;2023-07-20T00:13:44;19.00;74.90
11089;DHT22;5598;48.648;8.908;2023-07-20T00:16:11;19.00;75.20
11089;DHT22;5598;48.648;8.908;2023-07-20T00:18:38;19.00;75.90
11089;DHT22;5598;48.648;8.908;2023-07-20T00:21:05;18.80;75.80
11089;DHT22;5598;48.648;8.908;2023-07-20T00:23:31;18.70;76.00
11089;DHT22;5598;48.648;8.908;2023-07-20T00:25:58;18.60;76.20
11089;DHT22;5598;48.648;8.908;2023-07-20T00:28:26;18.60;76.20
11089;DHT22;5598;48.648;8.908;2023-07-20T00:30:53;18.50;76.90
11089;DHT22;5598;48.648;8.908;2023-07-20T00:33:20;18.50;76.80
11089;DHT22;5598;48.648;8.908;2023-07-20T00:35:47;18.50;77.00
11089;DHT22;5598;48.648;8.908;2023-07-20T00:38:13;18.50;77.30
11089;DHT22;5598;48.648;8.908;2023-07-20T00:40:41;18.30;77.60
11089;DHT22;5598;48.648;8.908;2023-07-20T00:43:08;18.30;78.00
11089;DHT22;5598;48.648;8.908;2023-07-20T00:45:37;18.20;77.30
11089;DHT22;5598;48.648;8.908;2023-07-20T00:48:06;18.20;77.80
11089;DHT22;5598;48.648;8.908;2023-07-20T00:50:34;18.20;77.30
11089;DHT22;5598;48.648;8.908;2023-07-20T00:53:02;18.10;77.70
11089;DHT22;5598;48.648;8.908;2023-07-20T00:55:31;18.00;77.60
11089;DHT22;5598;48.648;8.908;2023-07-20T00:57:58;18.00;78.10
11089;DHT22;5598;48.648;8.908;2023-07-20T01:00:25;18.00;78.10
11089;DHT22;5598;48.648;8.908;2023-07-20T01:02:54;17.80;78.70
11089;DHT22;5598;48.648;8.908;2023-07-20T01:05:21;17.60;78.70
11089;DHT22;5598;48.648;8.908;2023-07-20T01:07:54;17.80;78.80
11089;DHT22;5598;48.648;8.908;2023-07-20T01:10:29;17.60;78.90
11089;DHT22;5598;48.648;8.908;2023-07-20T01:12:58;17.60;79.10
11089;DHT22;5598;48.648;8.908;2023-07-20T01:15:25;17.60;79.00
11089;DHT22;5598;48.648;8.908;2023-07-20T01:17:53;17.60;79.20
11089;DHT22;5598;48.648;8.908;2023-07-20T01:20:21;17.50;79.10
11089;DHT22;5598;48.648;8.908;2023-07-20T01:23:06;17.50;79.00
11089;DHT22;5598;48.648;8.908;2023-07-20T01:25:55;17.50;79.40
11089;DHT22;5598;48.648;8.908;2023-07-20T01:28:48;17.60;79.30
11089;DHT22;5598;48.648;8.908;2023-07-20T01:31:21;17.40;79.40
11089;DHT22;5598;48.648;8.908;2023-07-20T01:33:49;17.30;79.20
11089;DHT22;5598;48.648;8.908;2023-07-20T01:36:17;17.50;79.20
11089;DHT22;5598;48.648;8.908;2023-07-20T01:38:45;17.50;79.30
11089;DHT22;5598;48.648;8.908;2023-07-20T01:41:13;17.50;79.60
11089;DHT22;5598;48.648;8.908;2023-07-20T01:43:39;17.40;80.10
11089;DHT22;5598;48.648;8.908;2023-07-20T01:46:06;17.40;79.60
11089;DHT22;5598;48.648;8.908;2023-07-20T01:48:34;17.20;80.20
11089;DHT22;5598;48.648;8.908;2023-07-20T01:51:01;17.20;80.30
11089;DHT22;5598;48.648;8.908;2023-07-20T01:53:28;17.20;80.30
11089;DHT22;5598;48.648;8.908;2023-07-20T01:55:56;17.20;80.20
11089;DHT22;5598;48.648;8.908;2023-07-20T01:58:22;17.20;80.70
11089;DHT22;5598;48.648;8.908;2023-07-20T02:00:50;17.10;80.80
11089;DHT22;5598;48.648;8.908;2023-07-20T02:03:16;17.10;80.60
11089;DHT22;5598;48.648;8.908;2023-07-20T02:05:45;17.00;80.80
11089;DHT22;5598;48.648;8.908;2023-07-20T02:08:11;17.00;81.50
11089;DHT22;5598;48.648;8.908;2023-07-20T02:10:38;17.00;81.60
11089;DHT22;5598;48.648;8.908;2023-07-20T02:13:05;16.80;81.70
11089;DHT22;5598;48.648;8.908;2023-07-20T02:15:32;16.60;81.80
11089;DHT22;5598;48.648;8.908;2023-07-20T02:17:58;16.70;82.40
11089;DHT22;5598;48.648;8.908;2023-07-20T02:20:25;16.60;82.10
11089;DHT22;5598;48.648;8.908;2023-07-20T02:22:54;16.70;81.90
11089;DHT22;5598;48.648;8.908;2023-07-20T02:25:21;16.60;81.70
11089;DHT22;5598;48.648;8.908;2023-07-20T02:27:48;16.60;81.90
11089;DHT22;5598;48.648;8.908;2023-07-20T02:30:15;16.60;82.40
11089;DHT22;5598;48.648;8.908;2023-07-20T02:32:43;16.50;83.10
11089;DHT22;5598;48.648;8.908;2023-07-20T02:35:11;16.50;82.90
11089;DHT22;5598;48.648;8.908;2023-07-20T02:37:38;16.50;82.60
11089;DHT22;5598;48.648;8.908;2023-07-20T02:40:07;16.50;82.80
11089;DHT22;5598;48.648;8.908;2023-07-20T02:42:34;16.50;82.60
11089;DHT22;5598;48.648;8.908;2023-07-20T02:45:01;16.60;82.50
11089;DHT22;5598;48.648;8.908;2023-07-20T02:47:29;16.40;83.20
11089;DHT22;5598;48.648;8.908;2023-07-20T02:49:57;16.40;83.80
11089;DHT22;5598;48.648;8.908;2023-07-20T02:52:23;16.30;83.80
11089;DHT22;5598;48.648;8.908;2023-07-20T02:54:50;16.30;83.90
11089;DHT22;5598;48.648;8.908;2023-07-20T02:57:18;16.40;83.50
11089;DHT22;5598;48.648;8.908;2023-07-20T02:59:45;16.50;83.20
11089;DHT22;5598;48.648;8.908;2023-07-20T03:02:12;16.50;82.90
11089;DHT22;5598;48.648;8.908;2023-07-20T03:04:39;16.50;83.50
11089;DHT22;5598;48.648;8.908;2023-07-20T03:07:06;16.50;83.50
11089;DHT22;5598;48.648;8.908;2023-07-20T03:09:33;16.30;83.50
11089;DHT22;5598;48.648;8.908;2023-07-20T03:12:00;16.30;83.80
11089;DHT22;5598;48.648;8.908;2023-07-20T03:14:31;16.20;83.80
11089;DHT22;5598;48.648;8.908;2023-07-20T03:16:58;16.20;84.40
11089;DHT22;5598;48.648;8.908;2023-07-20T03:19:25;16.20;84.70
11089;DHT22;5598;48.648;8.908;2023-07-20T03:21:51;16.10;84.50
11089;DHT22;5598;48.648;8.908;2023-07-20T03:24:18;16.20;84.40
11089;DHT22;5598;48.648;8.908;2023-07-20T03:26:45;16.10;84.50
11089;DHT22;5598;48.648;8.908;2023-07-20T03:29:12;16.10;84.50
11089;DHT22;5598;48.648;8.908;2023-07-20T03:31:40;16.10;84.70
11089;DHT22;5598;48.648;8.908;2023-07-20T03:34:07;16.10;85.30
11089;DHT22;5598;48.648;8.908;2023-07-20T03:36:34;16.00;85.40
11089;DHT22;5598;48.648;8.908;2023-07-20T03:39:01;16.00;85.50
11089;DHT22;5598;48.648;8.908;2023-07-20T03:41:28;16.00;85.70
11089;DHT22;5598;48.648;8.908;2023-07-20T03:43:55;15.90;86.00
11089;DHT22;5598;48.648;8.908;2023-07-20T03:46:21;16.00;86.10
11089;DHT22;5598;48.648;8.908;2023-07-20T03:48:50;15.90;86.10
11089;DHT22;5598;48.648;8.908;2023-07-20T03:51:16;15.90;86.50
11089;DHT22;5598;48.648;8.908;2023-07-20T03:53:43;15.90;86.60
11089;DHT22;5598;48.648;8.908;2023-07-20T03:56:10;16.00;86.90
11089;DHT22;5598;48.648;8.908;2023-07-20T03:58:36;15.90;87.00
11089;DHT22;5598;48.648;8.908;2023-07-20T04:01:03;15.90;87.20
11089;DHT22;5598;48.648;8.908;2023-07-20T04:03:30;15.90;87.20
11089;DHT22;5598;48.648;8.908;2023-07-20T04:05:58;16.10;87.00
11089;DHT22;5598;48.648;8.908;2023-07-20T04:08:25;16.10;87.00
11089;DHT22;5598;48.648;8.908;2023-07-20T04:10:52;16.10;87.10
11089;DHT22;5598;48.648;8.908;2023-07-20T04:13:19;16.10;87.40
11089;DHT22;5598;48.648;8.908;2023-07-20T04:15:45;16.10;87.00
11089;DHT22;5598;48.648;8.908;2023-07-20T04:18:12;16.20;87.40
11089;DHT22;5598;48.648;8.908;2023-07-20T04:20:39;16.20;87.20
11089;DHT22;5598;48.648;8.908;2023-07-20T04:23:07;16.20;87.20
11089;DHT22;5598;48.648;8.908;2023-07-20T04:25:34;16.30;87.00
11089;DHT22;5598;48.648;8.908;2023-07-20T04:28:05;16.30;88.00
11089;DHT22;5598;48.648;8.908;2023-07-20T04:30:34;16.20;88.20
11089;DHT22;5598;48.648;8.908;2023-07-20T04:33:01;16.20;88.70
11089;DHT22;5598;48.648;8.908;2023-07-20T04:35:48;16.30;88.90
11089;DHT22;5598;48.648;8.908;2023-07-20T04:38:17;16.30;88.70
11089;DHT22;5598;48.648;8.908;2023-07-20T04:40:44;16.30;89.30
11089;DHT22;5598;48.648;8.908;2023-07-20T04:43:11;16.20;89.40
11089;DHT22;5598;48.648;8.908;2023-07-20T04:45:38;16.20;89.60
11089;DHT22;5598;48.648;8.908;2023-07-20T04:48:09;16.20;89.60
11089;DHT22;5598;48.648;8.908;2023-07-20T04:50:36;16.30;89.20
11089;DHT22;5598;48.648;8.908;2023-07-20T04:53:03;16.40;89.50
11089;DHT22;5598;48.648;8.908;2023-07-20T04:55:31;16.50;89.50
11089;DHT22;5598;48.648;8.908;2023-07-20T04:58:00;16.40;89.20
11089;DHT22;5598;48.648;8.908;2023-07-20T05:00:26;16.60;89.40
11089;DHT22;5598;48.648;8.908;2023-07-20T05:02:53;16.60;89.30
11089;DHT22;5598;48.648;8.908;2023-07-20T05:05:20;16.70;89.30
11089;DHT22;5598;48.648;8.908;2023-07-20T05:07:47;16.80;89.20
11089;DHT22;5598;48.648;8.908;2023-07-20T05:10:14;16.90;89.20
11089;DHT22;5598;48.648;8.908;2023-07-20T05:12:42;16.90;88.90
11089;DHT22;5598;48.648;8.908;2023-07-20T05:15:09;17.00;89.10
11089;DHT22;5598;48.648;8.908;2023-07-20T05:17:36;17.00;89.10
11089;DHT22;5598;48.648;8.908;2023-07-20T05:20:03;17.10;88.80
11089;DHT22;5598;48.648;8.908;2023-07-20T05:22:30;17.20;88.90
11089;DHT22;5598;48.648;8.908;2023-07-20T05:24:57;17.20;88.80
11089;DHT22;5598;48.648;8.908;2023-07-20T05:27:24;17.20;89.00
11089;DHT22;5598;48.648;8.908;2023-07-20T05:29:52;17.30;88.20
11089;DHT22;5598;48.648;8.908;2023-07-20T05:32:19;17.40;87.20
11089;DHT22;5598;48.648;8.908;2023-07-20T05:34:46;17.60;87.20
11089;DHT22;5598;48.648;8.908;2023-07-20T05:37:12;17.70;86.40
11089;DHT22;5598;48.648;8.908;2023-07-20T05:39:39;17.60;86.20
11089;DHT22;5598;48.648;8.908;2023-07-20T05:42:06;17.60;85.60
11089;DHT22;5598;48.648;8.908;2023-07-20T05:44:33;17.80;86.00
11089;DHT22;5598;48.648;8.908;2023-07-20T05:47:01;17.80;85.40
11089;DHT22;5598;48.648;8.908;2023-07-20T05:49:29;17.90;85.50
11089;DHT22;5598;48.648;8.908;2023-07-20T05:51:56;17.90;85.00
11089;DHT22;5598;48.648;8.908;2023-07-20T05:54:24;18.00;84.60
11089;DHT22;5598;48.648;8.908;2023-07-20T05:56:50;18.10;84.30
11089;DHT22;5598;48.648;8.908;2023-07-20T05:59:17;18.00;84.90
11089;DHT22;5598;48.648;8.908;2023-07-20T06:01:45;18.10;85.00
11089;DHT22;5598;48.648;8.908;2023-07-20T06:04:13;18.10;84.20
11089;DHT22;5598;48.648;8.908;2023-07-20T06:06:40;18.00;83.50
11089;DHT22;5598;48.648;8.908;2023-07-20T06:09:07;18.20;83.50
11089;DHT22;5598;48.648;8.908;2023-07-20T06:11:37;18.20;83.60
11089;DHT22;5598;48.648;8.908;2023-07-20T06:14:04;18.20;84.60
11089;DHT22;5598;48.648;8.908;2023-07-20T06:16:31;18.20;84.50
11089;DHT22;5598;48.648;8.908;2023-07-20T06:19:00;18.20;83.80
11089;DHT22;5598;48.648;8.908;2023-07-20T06:21:28;18.20;85.20
11089;DHT22;5598;48.648;8.908;2023-07-20T06:23:55;18.20;85.20
11089;DHT22;5598;48.648;8.908;2023-07-20T06:26:22;18.30;84.40
11089;DHT22;5598;48.648;8.908;2023-07-20T06:28:48;18.40;84.20
11089;DHT22;5598;48.648;8.908;2023-07-20T06:31:16;18.40;84.30
11089;DHT22;5598;48.648;8.908;2023-07-20T06:33:43;18.40;84.40
11089;DHT22;5598;48.648;8.908;2023-07-20T06:36:10;18.50;84.60
11089;DHT22;5598;48.648;8.908;2023-07-20T06:38:38;18.50;84.80
11089;DHT22;5598;48.648;8.908;2023-07-20T06:41:05;18.60;84.60
11089;DHT22;5598;48.648;8.908;2023-07-20T06:43:32;18.70;83.00
11089;DHT22;5598;48.648;8.908;2023-07-20T06:45:59;18.80;83.70
11089;DHT22;5598;48.648;8.908;2023-07-20T06:48:26;18.80;82.80
11089;DHT22;5598;48.648;8.908;2023-07-20T06:50:52;19.00;82.30
11089;DHT22;5598;48.648;8.908;2023-07-20T06:53:19;19.10;82.40
11089;DHT22;5598;48.648;8.908;2023-07-20T06:55:47;19.10;83.00
11089;DHT22;5598;48.648;8.908;2023-07-20T06:58:14;19.20;82.30
11089;DHT22;5598;48.648;8.908;2023-07-20T07:00:41;19.30;82.00
11089;DHT22;5598;48.648;8.908;2023-07-20T07:03:08;19.40;82.10
11089;DHT22;5598;48.648;8.908;2023-07-20T07:05:36;19.50;81.70
11089;DHT22;5598;48.648;8.908;2023-07-20T07:08:03;19.50;80.70
11089;DHT22;5598;48.648;8.908;2023-07-20T07:10:30;19.60;81.30
11089;DHT22;5598;48.648;8.908;2023-07-20T07:12:59;19.60;82.30
11089;DHT22;5598;48.648;8.908;2023-07-20T07:15:27;19.70;81.60
11089;DHT22;5598;48.648;8.908;2023-07-20T07:17:54;19.60;81.70
11089;DHT22;5598;48.648;8.908;2023-07-20T07:20:21;19.70;80.60
11089;DHT22;5598;48.648;8.908;2023-07-20T07:22:50;19.50;81.40
11089;DHT22;5598;48.648;8.908;2023-07-20T07:25:18;19.50;80.60
11089;DHT22;5598;48.648;8.908;2023-07-20T07:27:45;19.50;81.60
11089;DHT22;5598;48.648;8.908;2023-07-20T07:30:14;19.50;81.70
11089;DHT22;5598;48.648;8.908;2023-07-20T07:32:42;19.60;82.10
11089;DHT22;5598;48.648;8.908;2023-07-20T07:35:08;19.70;81.80
11089;DHT22;5598;48.648;8.908;2023-07-20T07:37:35;19.80;81.30
11089;DHT22;5598;48.648;8.908;2023-07-20T07:40:02;19.80;79.40
11089;DHT22;5598;48.648;8.908;2023-07-20T07:42:30;19.90;80.10
11089;DHT22;5598;48.648;8.908;2023-07-20T07:44:56;19.90;80.60
11089;DHT22;5598;48.648;8.908;2023-07-20T07:47:24;20.00;78.70
11089;DHT22;5598;48.648;8.908;2023-07-20T07:49:51;20.00;79.70
11089;DHT22;5598;48.648;8.908;2023-07-20T07:52:18;20.10;79.00
11089;DHT22;5598;48.648;8.908;2023-07-20T07:54:45;20.10;78.30
11089;DHT22;5598;48.648;8.908;2023-07-20T07:57:11;20.10;79.10
11089;DHT22;5598;48.648;8.908;2023-07-20T07:59:39;20.10;79.10
11089;DHT22;5598;48.648;8.908;2023-07-20T08:02:06;20.20;77.40
11089;DHT22;5598;48.648;8.908;2023-07-20T08:04:34;20.40;78.40
11089;DHT22;5598;48.648;8.908;2023-07-20T08:07:03;20.60;76.90
11089;DHT22;5598;48.648;8.908;2023-07-20T08:09:30;20.70;76.50
11089;DHT22;5598;48.648;8.908;2023-07-20T08:11:56;20.80;76.10
11089;DHT22;5598;48.648;8.908;2023-07-20T08:14:23;20.90;76.00
11089;DHT22;5598;48.648;8.908;2023-07-20T08:16:50;21.00;75.10
11089;DHT22;5598;48.648;8.908;2023-07-20T08:19:17;21.00;75.30
11089;DHT22;5598;48.648;8.908;2023-07-20T08:21:45;20.90;75.30
11089;DHT22;5598;48.648;8.908;2023-07-20T08:24:12;20.90;76.40
11089;DHT22;5598;48.648;8.908;2023-07-20T08:26:38;20.80;75.60
11089;DHT22;5598;48.648;8.908;2023-07-20T08:29:05;21.10;75.40
11089;DHT22;5598;48.648;8.908;2023-07-20T08:31:32;21.40;76.20
11089;DHT22;5598;48.648;8.908;2023-07-20T08:33:59;21.80;74.40
11089;DHT22;5598;48.648;8.908;2023-07-20T08:36:25;21.90;72.40
11089;DHT22;5598;48.648;8.908;2023-07-20T08:38:54;21.80;70.00
11089;DHT22;5598;48.648;8.908;2023-07-20T08:41:20;21.80;71.30
11089;DHT22;5598;48.648;8.908;2023-07-20T08:43:47;21.70;72.10
11089;DHT22;5598;48.648;8.908;2023-07-20T08:46:14;21.80;71.40
11089;DHT22;5598;48.648;8.908;2023-07-20T08:48:43;21.70;72.30
11089;DHT22;5598;48.648;8.908;2023-07-20T08:51:11;21.80;71.50
11089;DHT22;5598;48.648;8.908;2023-07-20T08:53:39;21.90;70.80
11089;DHT22;5598;48.648;8.908;2023-07-20T08:56:08;22.10;71.90
11089;DHT22;5598;48.648;8.908;2023-07-20T08:58:36;22.60;69.60
11089;DHT22;5598;48.648;8.908;2023-07-20T09:01:04;23.00;66.80
11089;DHT22;5598;48.648;8.908;2023-07-20T09:03:31;23.20;64.30
11089;DHT22;5598;48.648;8.908;2023-07-20T09:05:58;23.30;64.90
11089;DHT22;5598;48.648;8.908;2023-07-20T09:08:25;23.50;63.90
11089;DHT22;5598;48.648;8.908;2023-07-20T09:10:52;23.70;64.40
11089;DHT22;5598;48.648;8.908;2023-07-20T09:13:20;23.80;64.70
11089;DHT22;5598;48.648;8.908;2023-07-20T09:15:47;23.80;64.70
11089;DHT22;5598;48.648;8.908;2023-07-20T09:18:23;23.60;63.60
11089;DHT22;5598;48.648;8.908;2023-07-20T09:20:50;23.50;66.00
11089;DHT22;5598;48.648;8.908;2023-07-20T09:23:17;23.50;66.00
11089;DHT22;5598;48.648;8.908;2023-07-20T09:25:44;23.40;65.10
11089;DHT22;5598;48.648;8.908;2023-07-20T09:28:11;23.30;66.00
11089;DHT22;5598;48.648;8.908;2023-07-20T09:30:39;23.40;65.10
11089;DHT22;5598;48.648;8.908;2023-07-20T09:33:18;23.60;62.10
11089;DHT22;5598;48.648;8.908;2023-07-20T09:35:45;23.90;62.50
11089;DHT22;5598;48.648;8.908;2023-07-20T09:38:12;24.40;62.00
11089;DHT22;5598;48.648;8.908;2023-07-20T09:40:41;24.70;60.30
11089;DHT22;5598;48.648;8.908;2023-07-20T09:43:09;24.90;59.30
11089;DHT22;5598;48.648;8.908;2023-07-20T09:45:42;25.00;58.50
11089;DHT22;5598;48.648;8.908;2023-07-20T09:48:10;25.20;58.50
11089;DHT22;5598;48.648;8.908;2023-07-20T09:50:40;25.60;58.70
11089;DHT22;5598;48.648;8.908;2023-07-20T09:53:11;26.00;57.50
11089;DHT22;5598;48.648;8.908;2023-07-20T09:55:40;25.90;57.30
11089;DHT22;5598;48.648;8.908;2023-07-20T09:58:08;25.70;57.30
11089;DHT22;5598;48.648;8.908;2023-07-20T10:00:36;25.50;59.30
11089;DHT22;5598;48.648;8.908;2023-07-20T10:03:05;25.40;56.60
11089;DHT22;5598;48.648;8.908;2023-07-20T10:05:33;25.30;56.30
11089;DHT22;5598;48.648;8.908;2023-07-20T10:08:02;25.60;59.60
11089;DHT22;5598;48.648;8.908;2023-07-20T10:10:31;26.00;57.70
11089;DHT22;5598;48.648;8.908;2023-07-20T10:13:00;26.40;56.80
11089;DHT22;5598;48.648;8.908;2023-07-20T10:15:30;26.80;57.20
11089;DHT22;5598;48.648;8.908;2023-07-20T10:18:02;27.40;57.10
11089;DHT22;5598;48.648;8.908;2023-07-20T10:20:32;27.70;56.70
11089;DHT22;5598;48.648;8.908;2023-07-20T10:23:00;27.90;53.90
11089;DHT22;5598;48.648;8.908;2023-07-20T10:25:28;27.80;54.00
11089;DHT22;5598;48.648;8.908;2023-07-20T10:27:57;27.50;52.50
11089;DHT22;5598;48.648;8.908;2023-07-20T10:30:25;27.40;52.80
11089;DHT22;5598;48.648;8.908;2023-07-20T10:32:52;27.50;51.60
11089;DHT22;5598;48.648;8.908;2023-07-20T10:35:19;27.50;51.50
11089;DHT22;5598;48.648;8.908;2023-07-20T10:37:49;27.50;52.10
11089;DHT22;5598;48.648;8.908;2023-07-20T10:40:30;27.50;51.30
11089;DHT22;5598;48.648;8.908;2023-07-20T10:43:02;27.40;51.90
11089;DHT22;5598;48.648;8.908;2023-07-20T10:45:48;27.20;54.10
11089;DHT22;5598;48.648;8.908;2023-07-20T10:48:17;27.10;53.70
11089;DHT22;5598;48.648;8.908;2023-07-20T10:53:29;26.80;53.60
11089;DHT22;5598;48.648;8.908;2023-07-20T10:56:06;26.80;51.20
11089;DHT22;5598;48.648;8.908;2023-07-20T10:58:33;27.00;54.40
11089;DHT22;5598;48.648;8.908;2023-07-20T11:01:02;27.40;52.00
11089;DHT22;5598;48.648;8.908;2023-07-20T11:03:30;27.80;50.70
11089;DHT22;5598;48.648;8.908;2023-07-20T11:05:58;28.00;50.60
11089;DHT22;5598;48.648;8.908;2023-07-20T11:08:43;28.20;51.20
11089;DHT22;5598;48.648;8.908;2023-07-20T11:11:22;28.50;52.00
11089;DHT22;5598;48.648;8.908;2023-07-20T11:13:56;28.60;51.60
11089;DHT22;5598;48.648;8.908;2023-07-20T11:16:34;28.80;52.20
11089;DHT22;5598;48.648;8.908;2023-07-20T11:19:01;29.00;51.40
11089;DHT22;5598;48.648;8.908;2023-07-20T11:21:29;29.30;51.40
11089;DHT22;5598;48.648;8.908;2023-07-20T11:23:57;29.50;51.30
11089;DHT22;5598;48.648;8.908;2023-07-20T11:26:24;29.70;50.00
11089;DHT22;5598;48.648;8.908;2023-07-20T11:28:51;29.70;48.20
11089;DHT22;5598;48.648;8.908;2023-07-20T11:31:18;29.40;49.60
11089;DHT22;5598;48.648;8.908;2023-07-20T11:33:45;29.50;49.90
11089;DHT22;5598;48.648;8.908;2023-07-20T11:36:12;29.70;49.40
11089;DHT22;5598;48.648;8.908;2023-07-20T11:38:41;30.00;50.10
11089;DHT22;5598;48.648;8.908;2023-07-20T11:41:10;30.00;49.60
11089;DHT22;5598;48.648;8.908;2023-07-20T11:43:41;29.70;48.00
11089;DHT22;5598;48.648;8.908;2023-07-20T11:46:09;29.30;49.90
11089;DHT22;5598;48.648;8.908;2023-07-20T11:48:36;29.30;50.60
11089;DHT22;5598;48.648;8.908;2023-07-20T11:51:02;29.10;49.80
11089;DHT22;5598;48.648;8.908;2023-07-20T11:53:31;29.10;47.70
11089;DHT22;5598;48.648;8.908;2023-07-20T11:55:58;29.10;47.40
11089;DHT22;5598;48.648;8.908;2023-07-20T11:58:28;29.20;48.40
11089;DHT22;5598;48.648;8.908;2023-07-20T12:00:55;29.20;48.70
11089;DHT22;5598;48.648;8.908;2023-07-20T12:03:22;29.20;48.90
11089;DHT22;5598;48.648;8.908;2023-07-20T12:05:49;29.10;49.20
11089;DHT22;5598;48.648;8.908;2023-07-20T12:08:16;29.10;50.20
11089;DHT22;5598;48.648;8.908;2023-07-20T12:10:43;29.20;50.60
11089;DHT22;5598;48.648;8.908;2023-07-20T12:13:10;28.90;50.10
11089;DHT22;5598;48.648;8.908;2023-07-20T12:15:39;28.80;49.30
11089;DHT22;5598;48.648;8.908;2023-07-20T12:18:06;28.90;48.70
11089;DHT22;5598;48.648;8.908;2023-07-20T12:20:34;28.90;50.30
11089;DHT22;5598;48.648;8.908;2023-07-20T12:23:02;28.90;50.30
11089;DHT22;5598;48.648;8.908;2023-07-20T12:25:36;28.80;50.40
11089;DHT22;5598;48.648;8.908;2023-07-20T12:28:05;29.10;49.30
11089;DHT22;5598;48.648;8.908;2023-07-20T12:30:31;29.10;49.60
11089;DHT22;5598;48.648;8.908;2023-07-20T12:33:00;29.20;48.10
11089;DHT22;5598;48.648;8.908;2023-07-20T12:35:27;29.20;49.80
11089;DHT22;5598;48.648;8.908;2023-07-20T12:37:54;29.20;47.60
11089;DHT22;5598;48.648;8.908;2023-07-20T12:40:21;29.10;48.00
11089;DHT22;5598;48.648;8.908;2023-07-20T12:42:48;29.10;47.10
11089;DHT22;5598;48.648;8.908;2023-07-20T12:45:14;29.00;48.20
11089;DHT22;5598;48.648;8.908;2023-07-20T12:47:41;29.00;47.20
11089;DHT22;5598;48.648;8.908;2023-07-20T12:50:10;29.10;48.90
11089;DHT22;5598;48.648;8.908;2023-07-20T12:52:38;29.20;50.30
11089;DHT22;5598;48.648;8.908;2023-07-20T12:55:06;29.50;51.10
11089;DHT22;5598;48.648;8.908;2023-07-20T12:57:34;29.60;48.10
11089;DHT22;5598;48.648;8.908;2023-07-20T13:00:01;29.70;49.00
11089;DHT22;5598;48.648;8.908;2023-07-20T13:02:29;29.70;49.20
11089;DHT22;5598;48.648;8.908;2023-07-20T13:04:56;29.80;46.90
11089;DHT22;5598;48.648;8.908;2023-07-20T13:07:31;29.70;46.30
11089;DHT22;5598;48.648;8.908;2023-07-20T13:09:58;29.50;46.20
11089;DHT22;5598;48.648;8.908;2023-07-20T13:12:26;29.20;46.00
11089;DHT22;5598;48.648;8.908;2023-07-20T13:14:53;29.00;48.00
11089;DHT22;5598;48.648;8.908;2023-07-20T13:17:19;28.80;47.20
11089;DHT22;5598;48.648;8.908;2023-07-20T13:19:46;28.50;48.40
11089;DHT22;5598;48.648;8.908;2023-07-20T13:22:13;28.40;48.40
11089;DHT22;5598;48.648;8.908;2023-07-20T13:24:41;28.30;48.40
11089;DHT22;5598;48.648;8.908;2023-07-20T13:27:08;28.40;47.80
11089;DHT22;5598;48.648;8.908;2023-07-20T13:29:35;28.30;47.60
11089;DHT22;5598;48.648;8.908;2023-07-20T13:32:02;28.30;48.00
11089;DHT22;5598;48.648;8.908;2023-07-20T13:34:29;28.10;47.60
11089;DHT22;5598;48.648;8.908;2023-07-20T13:36:56;28.00;48.40
11089;DHT22;5598;48.648;8.908;2023-07-20T13:39:24;28.00;49.30
11089;DHT22;5598;48.648;8.908;2023-07-20T13:41:54;28.20;50.60
11089;DHT22;5598;48.648;8.908;2023-07-20T13:44:21;28.40;48.20
11089;DHT22;5598;48.648;8.908;2023-07-20T13:46:48;28.40;50.20
11089;DHT22;5598;48.648;8.908;2023-07-20T13:49:15;28.50;49.10
11089;DHT22;5598;48.648;8.908;2023-07-20T13:51:42;28.60;47.80
11089;DHT22;5598;48.648;8.908;2023-07-20T13:54:10;28.70;49.30
11089;DHT22;5598;48.648;8.908;2023-07-20T13:56:38;28.70;47.50
11089;DHT22;5598;48.648;8.908;2023-07-20T13:59:06;28.60;48.50
11089;DHT22;5598;48.648;8.908;2023-07-20T14:01:33;28.70;50.20
11089;DHT22;5598;48.648;8.908;2023-07-20T14:04:01;28.70;49.20
11089;DHT22;5598;48.648;8.908;2023-07-20T14:06:30;28.80;49.30
11089;DHT22;5598;48.648;8.908;2023-07-20T14:08:58;28.70;48.50
11089;DHT22;5598;48.648;8.908;2023-07-20T14:11:25;28.70;48.60
11089;DHT22;5598;48.648;8.908;2023-07-20T14:13:52;28.80;48.00
11089;DHT22;5598;48.648;8.908;2023-07-20T14:16:22;28.90;50.40
11089;DHT22;5598;48.648;8.908;2023-07-20T14:18:48;29.00;50.10
11089;DHT22;5598;48.648;8.908;2023-07-20T14:21:16;29.10;47.30
11089;DHT22;5598;48.648;8.908;2023-07-20T14:23:45;29.10;49.10
11089;DHT22;5598;48.648;8.908;2023-07-20T14:26:11;29.20;49.50
11089;DHT22;5598;48.648;8.908;2023-07-20T14:28:38;29.30;49.30
11089;DHT22;5598;48.648;8.908;2023-07-20T14:31:05;29.30;47.20
11089;DHT22;5598;48.648;8.908;2023-07-20T14:33:34;29.20;48.40
11089;DHT22;5598;48.648;8.908;2023-07-20T14:36:01;29.20;49.50
11089;DHT22;5598;48.648;8.908;2023-07-20T14:38:28;29.30;49.30
11089;DHT22;5598;48.648;8.908;2023-07-20T14:40:55;29.40;49.30
11089;DHT22;5598;48.648;8.908;2023-07-20T14:43:21;29.40;50.30
11089;DHT22;5598;48.648;8.908;2023-07-20T14:45:48;29.40;48.90
11089;DHT22;5598;48.648;8.908;2023-07-20T14:48:15;29.40;49.40
11089;DHT22;5598;48.648;8.908;2023-07-20T14:50:43;29.30;47.50
11089;DHT22;5598;48.648;8.908;2023-07-20T14:53:11;29.10;47.60
11089;DHT22;5598;48.648;8.908;2023-07-20T14:55:37;29.00;49.80
11089;DHT22;5598;48.648;8.908;2023-07-20T14:58:04;29.00;49.40
11089;DHT22;5598;48.648;8.908;2023-07-20T15:00:31;29.00;51.00
11089;DHT22;5598;48.648;8.908;2023-07-20T15:02:58;29.00;49.50
11089;DHT22;5598;48.648;8.908;2023-07-20T15:05:25;29.10;51.20
11089;DHT22;5598;48.648;8.908;2023-07-20T15:07:54;29.20;51.10
11089;DHT22;5598;48.648;8.908;2023-07-20T15:10:20;29.30;48.90
11089;DHT22;5598;48.648;8.908;2023-07-20T15:12:48;29.20;49.30
11089;DHT22;5598;48.648;8.908;2023-07-20T15:15:15;29.10;51.80
11089;DHT22;5598;48.648;8.908;2023-07-20T15:17:43;29.00;50.50
11089;DHT22;5598;48.648;8.908;2023-07-20T15:20:12;29.00;50.40
11089;DHT22;5598;48.648;8.908;2023-07-20T15:22:39;28.90;50.70
11089;DHT22;5598;48.648;8.908;2023-07-20T15:25:09;28.90;50.40
11089;DHT22;5598;48.648;8.908;2023-07-20T15:27:37;28.80;50.00
11089;DHT22;5598;48.648;8.908;2023-07-20T15:30:05;28.80;51.70
11089;DHT22;5598;48.648;8.908;2023-07-20T15:32:32;28.60;50.80
11089;DHT22;5598;48.648;8.908;2023-07-20T15:34:59;28.50;50.70
11089;DHT22;5598;48.648;8.908;2023-07-20T15:37:26;28.50;52.00
11089;DHT22;5598;48.648;8.908;2023-07-20T15:39:53;28.50;51.20
11089;DHT22;5598;48.648;8.908;2023-07-20T15:42:21;28.50;49.50
11089;DHT22;5598;48.648;8.908;2023-07-20T15:44:48;28.50;51.40
11089;DHT22;5598;48.648;8.908;2023-07-20T15:47:14;28.50;50.70
11089;DHT22;5598;48.648;8.908;2023-07-20T15:49:42;28.50;50.50
11089;DHT22;5598;48.648;8.908;2023-07-20T15:52:09;28.50;50.50